createdAt,value
2023-04-19T00:07:04.467Z,0
2023-04-19T00:19:04.608Z,2
2023-04-19T00:31:04.611Z,0
2023-04-19T00:43:04.683Z,1
2023-04-19T00:55:04.498Z,8
2023-04-19T01:07:04.680Z,2
2023-04-19T01:19:04.635Z,4
2023-04-19T01:31:04.606Z,0
2023-04-19T01:43:04.720Z,0
2023-04-19T01:55:04.737Z,0
2023-04-19T02:07:04.638Z,0
2023-04-19T02:19:04.665Z,0
2023-04-19T02:31:04.759Z,0
2023-04-19T02:43:04.725Z,0
2023-04-19T02:55:04.665Z,0
2023-04-19T03:07:04.851Z,0
2023-04-19T03:19:04.811Z,0
2023-04-19T03:31:04.790Z,0
2023-04-19T03:43:04.658Z,0
2023-04-19T03:55:04.897Z,0
2023-04-19T04:07:04.794Z,0
2023-04-19T04:19:04.857Z,0
2023-04-19T04:31:04.727Z,0
2023-04-19T04:43:04.909Z,0
2023-04-19T04:55:04.876Z,0
2023-04-19T05:07:04.845Z,2
2023-04-19T05:19:04.750Z,11
2023-04-19T05:31:04.957Z,10
2023-04-19T05:43:04.879Z,6
2023-04-19T05:55:04.905Z,22
2023-04-19T06:07:08.123Z,3
2023-04-19T06:19:05.052Z,3
2023-04-19T06:31:04.948Z,7
2023-04-19T06:43:05.701Z,2
2023-04-19T06:55:04.868Z,13
2023-04-19T07:07:05.124Z,5
2023-04-19T07:19:04.999Z,17
2023-04-19T07:43:05.170Z,11
2023-04-19T07:55:05.097Z,10
2023-04-19T08:07:05.337Z,13
2023-04-19T08:19:04.958Z,6
2023-04-19T08:31:05.167Z,23
2023-04-19T08:43:05.085Z,22
2023-04-19T08:55:05.303Z,27
2023-04-19T09:07:05.045Z,11
2023-04-19T09:31:15.451Z,7
2023-04-19T09:43:17.819Z,11
2023-04-19T09:55:11.553Z,11
2023-04-19T10:07:25.043Z,15
2023-04-19T10:19:05.224Z,12
2023-04-19T10:31:05.248Z,7
2023-04-19T10:43:05.155Z,11
2023-04-19T10:55:05.342Z,5
2023-04-19T11:07:05.317Z,10
2023-04-19T11:19:05.278Z,6
2023-04-19T11:31:05.210Z,7
2023-04-19T11:43:05.444Z,10
2023-04-19T11:55:05.296Z,8
2023-04-19T12:07:05.320Z,16
2023-04-19T12:19:05.198Z,8
2023-04-19T12:31:05.414Z,11
2023-04-19T12:43:05.353Z,13
2023-04-19T12:55:05.579Z,8
2023-04-19T13:07:05.347Z,17
2023-04-19T13:19:05.335Z,9
2023-04-19T13:31:05.698Z,11
2023-04-19T13:43:05.548Z,9
2023-04-19T13:55:05.372Z,14
2023-04-19T14:07:05.395Z,16
2023-04-19T14:19:05.510Z,12
2023-04-19T14:31:05.468Z,23
2023-04-19T14:43:05.437Z,17
2023-04-19T14:55:05.391Z,13
2023-04-19T15:07:05.523Z,21
2023-04-19T15:19:05.516Z,17
2023-04-19T15:31:05.492Z,14
2023-04-19T15:43:05.550Z,14
2023-04-19T15:55:05.438Z,23
2023-04-19T16:07:05.627Z,25
2023-04-19T16:19:05.717Z,6
2023-04-19T16:31:05.566Z,19
2023-04-19T16:43:05.513Z,16
2023-04-19T16:55:05.816Z,19
2023-04-19T17:07:05.611Z,12
2023-04-19T17:19:05.709Z,9
2023-04-19T17:31:05.558Z,10
2023-04-19T17:43:05.715Z,17
2023-04-19T17:55:05.620Z,20
2023-04-19T18:07:05.607Z,8
2023-04-19T18:19:05.666Z,7
2023-04-19T18:31:05.596Z,9
2023-04-19T18:43:05.716Z,7
2023-04-19T18:55:05.735Z,7
2023-04-19T19:07:14.747Z,3
2023-04-19T19:19:05.653Z,5
2023-04-19T19:31:05.772Z,2
2023-04-19T19:43:05.797Z,9
2023-04-19T19:55:05.668Z,3
2023-04-19T20:19:05.837Z,0
2023-04-19T20:31:05.789Z,3
2023-04-19T20:43:05.969Z,0
2023-04-19T20:55:05.700Z,0
2023-04-19T21:07:05.869Z,5
2023-04-19T21:19:05.862Z,3
2023-04-19T21:31:05.833Z,0
2023-04-19T21:43:05.767Z,0
2023-04-19T21:55:06.227Z,0
2023-04-19T22:07:05.886Z,0
2023-04-19T22:19:05.851Z,0
2023-04-19T22:31:05.799Z,0
2023-04-19T22:43:05.955Z,0
2023-04-19T22:55:05.907Z,1
2023-04-19T23:07:05.828Z,0
2023-04-19T23:19:06.061Z,0
2023-04-19T23:31:05.978Z,2
2023-04-19T23:43:06.097Z,0
2023-04-19T23:55:05.960Z,0
